sensor_id;sensor_type;location;lat;lon;timestamp;P1;durP1;ratioP1;P2;durP2;ratioP2
54539;SDS011;40438;52.992;18.604;2023-03-14T00:00:08;28.38;;;12.60;;
54539;SDS011;40438;52.992;18.604;2023-03-14T00:02:35;25.15;;;11.05;;
54539;SDS011;40438;52.992;18.604;2023-03-14T00:05:01;32.38;;;12.80;;
54539;SDS011;40438;52.992;18.604;2023-03-14T00:07:27;25.45;;;10.85;;
54539;SDS011;40438;52.992;18.604;2023-03-14T00:09:53;23.52;;;9.75;;
54539;SDS011;40438;52.992;18.604;2023-03-14T00:12:18;25.02;;;9.95;;
54539;SDS011;40438;52.992;18.604;2023-03-14T00:14:44;27.10;;;10.60;;
54539;SDS011;40438;52.992;18.604;2023-03-14T00:17:11;22.70;;;10.30;;
54539;SDS011;40438;52.992;18.604;2023-03-14T00:19:37;23.52;;;9.23;;
54539;SDS011;40438;52.992;18.604;2023-03-14T00:22:03;24.02;;;10.48;;
54539;SDS011;40438;52.992;18.604;2023-03-14T00:24:29;22.92;;;9.40;;
54539;SDS011;40438;52.992;18.604;2023-03-14T00:26:54;23.38;;;9.80;;
54539;SDS011;40438;52.992;18.604;2023-03-14T00:29:22;20.58;;;9.02;;
54539;SDS011;40438;52.992;18.604;2023-03-14T00:31:47;24.95;;;9.75;;
54539;SDS011;40438;52.992;18.604;2023-03-14T00:34:15;23.17;;;8.93;;
54539;SDS011;40438;52.992;18.604;2023-03-14T00:36:40;23.73;;;9.75;;
54539;SDS011;40438;52.992;18.604;2023-03-14T00:39:06;19.25;;;8.90;;
54539;SDS011;40438;52.992;18.604;2023-03-14T00:41:32;17.65;;;8.25;;
54539;SDS011;40438;52.992;18.604;2023-03-14T00:43:59;18.98;;;8.18;;
54539;SDS011;40438;52.992;18.604;2023-03-14T00:46:26;22.25;;;9.00;;
54539;SDS011;40438;52.992;18.604;2023-03-14T00:48:52;17.98;;;8.13;;
54539;SDS011;40438;52.992;18.604;2023-03-14T00:51:19;18.25;;;8.70;;
54539;SDS011;40438;52.992;18.604;2023-03-14T00:53:45;17.50;;;8.60;;
54539;SDS011;40438;52.992;18.604;2023-03-14T00:56:11;17.08;;;8.00;;
54539;SDS011;40438;52.992;18.604;2023-03-14T00:58:38;15.63;;;7.97;;
54539;SDS011;40438;52.992;18.604;2023-03-14T01:01:08;17.05;;;8.02;;
54539;SDS011;40438;52.992;18.604;2023-03-14T01:03:35;16.02;;;7.18;;
54539;SDS011;40438;52.992;18.604;2023-03-14T01:06:08;18.75;;;7.38;;
54539;SDS011;40438;52.992;18.604;2023-03-14T01:08:37;16.25;;;7.88;;
54539;SDS011;40438;52.992;18.604;2023-03-14T01:11:05;19.10;;;8.50;;
54539;SDS011;40438;52.992;18.604;2023-03-14T01:13:31;16.95;;;7.70;;
54539;SDS011;40438;52.992;18.604;2023-03-14T01:16:00;15.90;;;6.78;;
54539;SDS011;40438;52.992;18.604;2023-03-14T01:18:27;17.52;;;7.30;;
54539;SDS011;40438;52.992;18.604;2023-03-14T01:20:53;14.00;;;6.20;;
54539;SDS011;40438;52.992;18.604;2023-03-14T01:23:19;16.02;;;7.10;;
54539;SDS011;40438;52.992;18.604;2023-03-14T01:25:46;14.38;;;6.25;;
54539;SDS011;40438;52.992;18.604;2023-03-14T01:28:12;15.40;;;7.07;;
54539;SDS011;40438;52.992;18.604;2023-03-14T01:30:37;12.98;;;6.50;;
54539;SDS011;40438;52.992;18.604;2023-03-14T01:33:04;14.02;;;6.20;;
54539;SDS011;40438;52.992;18.604;2023-03-14T01:35:29;13.57;;;6.55;;
54539;SDS011;40438;52.992;18.604;2023-03-14T01:37:56;16.38;;;7.57;;
54539;SDS011;40438;52.992;18.604;2023-03-14T01:40:22;12.45;;;6.70;;
54539;SDS011;40438;52.992;18.604;2023-03-14T01:42:55;15.80;;;6.43;;
54539;SDS011;40438;52.992;18.604;2023-03-14T01:48:25;13.23;;;6.82;;
54539;SDS011;40438;52.992;18.604;2023-03-14T01:50:54;11.55;;;5.95;;
54539;SDS011;40438;52.992;18.604;2023-03-14T01:53:20;12.05;;;5.95;;
54539;SDS011;40438;52.992;18.604;2023-03-14T01:55:46;12.55;;;6.28;;
54539;SDS011;40438;52.992;18.604;2023-03-14T01:58:14;13.93;;;6.53;;
54539;SDS011;40438;52.992;18.604;2023-03-14T02:00:41;12.90;;;6.50;;
54539;SDS011;40438;52.992;18.604;2023-03-14T02:03:09;13.70;;;5.78;;
54539;SDS011;40438;52.992;18.604;2023-03-14T02:05:39;12.93;;;5.80;;
54539;SDS011;40438;52.992;18.604;2023-03-14T02:08:11;10.68;;;5.53;;
54539;SDS011;40438;52.992;18.604;2023-03-14T02:10:45;10.82;;;5.43;;
54539;SDS011;40438;52.992;18.604;2023-03-14T02:13:16;13.23;;;6.13;;
54539;SDS011;40438;52.992;18.604;2023-03-14T02:15:58;11.77;;;5.70;;
54539;SDS011;40438;52.992;18.604;2023-03-14T02:18:56;11.20;;;5.35;;
54539;SDS011;40438;52.992;18.604;2023-03-14T02:21:46;11.00;;;5.60;;
54539;SDS011;40438;52.992;18.604;2023-03-14T02:24:22;11.93;;;5.75;;
54539;SDS011;40438;52.992;18.604;2023-03-14T02:27:05;11.43;;;5.07;;
54539;SDS011;40438;52.992;18.604;2023-03-14T02:29:45;12.63;;;6.05;;
54539;SDS011;40438;52.992;18.604;2023-03-14T02:32:16;12.63;;;5.45;;
54539;SDS011;40438;52.992;18.604;2023-03-14T02:34:43;9.88;;;5.38;;
54539;SDS011;40438;52.992;18.604;2023-03-14T02:37:13;10.45;;;4.82;;
54539;SDS011;40438;52.992;18.604;2023-03-14T02:39:42;11.98;;;5.28;;
54539;SDS011;40438;52.992;18.604;2023-03-14T02:42:11;12.60;;;4.80;;
54539;SDS011;40438;52.992;18.604;2023-03-14T02:44:47;9.75;;;5.03;;
54539;SDS011;40438;52.992;18.604;2023-03-14T02:47:14;10.55;;;5.25;;
54539;SDS011;40438;52.992;18.604;2023-03-14T02:49:40;9.55;;;4.78;;
54539;SDS011;40438;52.992;18.604;2023-03-14T02:52:06;9.90;;;5.07;;
54539;SDS011;40438;52.992;18.604;2023-03-14T02:54:31;11.55;;;5.13;;
54539;SDS011;40438;52.992;18.604;2023-03-14T02:56:57;12.35;;;5.38;;
54539;SDS011;40438;52.992;18.604;2023-03-14T02:59:25;8.60;;;4.53;;
54539;SDS011;40438;52.992;18.604;2023-03-14T03:01:55;9.38;;;5.13;;
54539;SDS011;40438;52.992;18.604;2023-03-14T03:04:21;8.35;;;4.63;;
54539;SDS011;40438;52.992;18.604;2023-03-14T03:06:46;8.45;;;4.97;;
54539;SDS011;40438;52.992;18.604;2023-03-14T03:09:13;10.10;;;4.97;;
54539;SDS011;40438;52.992;18.604;2023-03-14T03:11:39;9.13;;;4.50;;
54539;SDS011;40438;52.992;18.604;2023-03-14T03:14:06;9.10;;;4.38;;
54539;SDS011;40438;52.992;18.604;2023-03-14T03:16:34;8.77;;;4.80;;
54539;SDS011;40438;52.992;18.604;2023-03-14T03:18:59;8.18;;;4.82;;
54539;SDS011;40438;52.992;18.604;2023-03-14T03:21:25;8.55;;;4.55;;
54539;SDS011;40438;52.992;18.604;2023-03-14T03:23:52;10.50;;;3.75;;
54539;SDS011;40438;52.992;18.604;2023-03-14T03:26:18;6.93;;;4.60;;
54539;SDS011;40438;52.992;18.604;2023-03-14T03:28:43;9.90;;;4.70;;
54539;SDS011;40438;52.992;18.604;2023-03-14T03:31:11;7.78;;;4.25;;
54539;SDS011;40438;52.992;18.604;2023-03-14T03:33:39;7.60;;;4.07;;
54539;SDS011;40438;52.992;18.604;2023-03-14T03:36:06;7.15;;;4.10;;
54539;SDS011;40438;52.992;18.604;2023-03-14T03:38:35;9.35;;;4.57;;
54539;SDS011;40438;52.992;18.604;2023-03-14T03:41:03;9.90;;;4.03;;
54539;SDS011;40438;52.992;18.604;2023-03-14T03:43:30;7.93;;;4.45;;
54539;SDS011;40438;52.992;18.604;2023-03-14T03:45:57;9.32;;;4.30;;
54539;SDS011;40438;52.992;18.604;2023-03-14T03:48:23;7.22;;;3.90;;
54539;SDS011;40438;52.992;18.604;2023-03-14T03:50:50;9.30;;;3.90;;
54539;SDS011;40438;52.992;18.604;2023-03-14T03:53:19;7.10;;;3.72;;
54539;SDS011;40438;52.992;18.604;2023-03-14T03:55:45;8.02;;;4.07;;
54539;SDS011;40438;52.992;18.604;2023-03-14T03:58:11;10.85;;;4.18;;
54539;SDS011;40438;52.992;18.604;2023-03-14T04:00:37;7.03;;;4.07;;
54539;SDS011;40438;52.992;18.604;2023-03-14T04:03:03;8.85;;;3.88;;
54539;SDS011;40438;52.992;18.604;2023-03-14T04:05:29;6.38;;;3.92;;
54539;SDS011;40438;52.992;18.604;2023-03-14T04:08:03;6.45;;;3.42;;
54539;SDS011;40438;52.992;18.604;2023-03-14T04:10:33;10.18;;;4.00;;
54539;SDS011;40438;52.992;18.604;2023-03-14T04:13:11;5.82;;;3.88;;
54539;SDS011;40438;52.992;18.604;2023-03-14T04:15:38;6.07;;;3.53;;
54539;SDS011;40438;52.992;18.604;2023-03-14T04:18:13;7.05;;;4.05;;
54539;SDS011;40438;52.992;18.604;2023-03-14T04:20:40;5.85;;;3.22;;
54539;SDS011;40438;52.992;18.604;2023-03-14T04:23:08;5.78;;;3.17;;
54539;SDS011;40438;52.992;18.604;2023-03-14T04:25:34;6.30;;;3.40;;
54539;SDS011;40438;52.992;18.604;2023-03-14T04:28:03;4.97;;;3.13;;
54539;SDS011;40438;52.992;18.604;2023-03-14T04:30:29;7.32;;;3.35;;
54539;SDS011;40438;52.992;18.604;2023-03-14T04:33:02;8.32;;;3.35;;
54539;SDS011;40438;52.992;18.604;2023-03-14T04:35:30;4.85;;;2.75;;
54539;SDS011;40438;52.992;18.604;2023-03-14T04:38:00;6.28;;;3.55;;
54539;SDS011;40438;52.992;18.604;2023-03-14T04:40:28;5.18;;;3.20;;
54539;SDS011;40438;52.992;18.604;2023-03-14T04:42:59;6.72;;;2.78;;
54539;SDS011;40438;52.992;18.604;2023-03-14T04:45:25;5.78;;;3.30;;
54539;SDS011;40438;52.992;18.604;2023-03-14T04:47:51;6.35;;;3.17;;
54539;SDS011;40438;52.992;18.604;2023-03-14T04:50:18;6.38;;;3.72;;
54539;SDS011;40438;52.992;18.604;2023-03-14T04:52:45;4.15;;;2.78;;
54539;SDS011;40438;52.992;18.604;2023-03-14T04:55:11;4.95;;;2.85;;
54539;SDS011;40438;52.992;18.604;2023-03-14T04:57:38;7.70;;;3.70;;
54539;SDS011;40438;52.992;18.604;2023-03-14T05:00:08;5.20;;;3.45;;
54539;SDS011;40438;52.992;18.604;2023-03-14T05:05:48;4.38;;;2.72;;
54539;SDS011;40438;52.992;18.604;2023-03-14T05:08:49;4.90;;;3.10;;
54539;SDS011;40438;52.992;18.604;2023-03-14T05:11:17;4.35;;;2.47;;
54539;SDS011;40438;52.992;18.604;2023-03-14T05:14:07;5.28;;;3.10;;
54539;SDS011;40438;52.992;18.604;2023-03-14T05:16:33;5.20;;;3.00;;
54539;SDS011;40438;52.992;18.604;2023-03-14T05:19:28;4.57;;;2.70;;
54539;SDS011;40438;52.992;18.604;2023-03-14T05:22:12;4.97;;;2.60;;
54539;SDS011;40438;52.992;18.604;2023-03-14T05:24:50;3.88;;;2.47;;
54539;SDS011;40438;52.992;18.604;2023-03-14T05:27:35;5.03;;;2.60;;
54539;SDS011;40438;52.992;18.604;2023-03-14T05:30:22;7.22;;;2.70;;
54539;SDS011;40438;52.992;18.604;2023-03-14T05:33:08;4.50;;;2.45;;
54539;SDS011;40438;52.992;18.604;2023-03-14T05:35:40;3.83;;;2.45;;
54539;SDS011;40438;52.992;18.604;2023-03-14T05:38:25;5.60;;;2.67;;
54539;SDS011;40438;52.992;18.604;2023-03-14T05:41:08;4.15;;;2.55;;
54539;SDS011;40438;52.992;18.604;2023-03-14T05:43:55;3.63;;;2.28;;
54539;SDS011;40438;52.992;18.604;2023-03-14T05:46:35;4.15;;;2.25;;
54539;SDS011;40438;52.992;18.604;2023-03-14T05:49:13;4.13;;;2.67;;
54539;SDS011;40438;52.992;18.604;2023-03-14T05:51:48;3.90;;;2.50;;
54539;SDS011;40438;52.992;18.604;2023-03-14T05:54:40;5.07;;;2.97;;
54539;SDS011;40438;52.992;18.604;2023-03-14T05:57:25;4.97;;;3.03;;
54539;SDS011;40438;52.992;18.604;2023-03-14T06:00:10;3.55;;;2.22;;
54539;SDS011;40438;52.992;18.604;2023-03-14T06:02:48;4.25;;;2.20;;
54539;SDS011;40438;52.992;18.604;2023-03-14T06:05:22;4.78;;;3.03;;
54539;SDS011;40438;52.992;18.604;2023-03-14T06:07:52;4.32;;;2.58;;
54539;SDS011;40438;52.992;18.604;2023-03-14T06:10:18;7.45;;;2.47;;
54539;SDS011;40438;52.992;18.604;2023-03-14T06:12:44;4.95;;;2.40;;
54539;SDS011;40438;52.992;18.604;2023-03-14T06:15:10;4.10;;;2.60;;
54539;SDS011;40438;52.992;18.604;2023-03-14T06:17:36;5.70;;;2.55;;
54539;SDS011;40438;52.992;18.604;2023-03-14T06:20:09;7.55;;;3.17;;
54539;SDS011;40438;52.992;18.604;2023-03-14T06:22:36;5.30;;;2.08;;
54539;SDS011;40438;52.992;18.604;2023-03-14T06:25:02;4.90;;;2.88;;
54539;SDS011;40438;52.992;18.604;2023-03-14T06:27:28;2.95;;;2.28;;
54539;SDS011;40438;52.992;18.604;2023-03-14T06:29:55;3.58;;;2.20;;
54539;SDS011;40438;52.992;18.604;2023-03-14T06:32:22;4.38;;;2.22;;
54539;SDS011;40438;52.992;18.604;2023-03-14T06:34:51;3.95;;;2.47;;
54539;SDS011;40438;52.992;18.604;2023-03-14T06:37:19;3.53;;;2.45;;
54539;SDS011;40438;52.992;18.604;2023-03-14T06:39:46;3.50;;;2.45;;
54539;SDS011;40438;52.992;18.604;2023-03-14T06:42:21;4.20;;;2.17;;
54539;SDS011;40438;52.992;18.604;2023-03-14T06:44:48;4.85;;;2.42;;
54539;SDS011;40438;52.992;18.604;2023-03-14T06:47:14;3.25;;;2.20;;
54539;SDS011;40438;52.992;18.604;2023-03-14T06:49:42;5.35;;;2.72;;
54539;SDS011;40438;52.992;18.604;2023-03-14T06:52:08;3.90;;;2.33;;
54539;SDS011;40438;52.992;18.604;2023-03-14T06:54:36;3.80;;;2.22;;
54539;SDS011;40438;52.992;18.604;2023-03-14T06:57:02;3.35;;;2.22;;
54539;SDS011;40438;52.992;18.604;2023-03-14T06:59:30;4.88;;;2.20;;
54539;SDS011;40438;52.992;18.604;2023-03-14T07:01:56;3.88;;;2.20;;
54539;SDS011;40438;52.992;18.604;2023-03-14T07:04:22;3.47;;;2.22;;
54539;SDS011;40438;52.992;18.604;2023-03-14T07:06:48;4.35;;;2.60;;
54539;SDS011;40438;52.992;18.604;2023-03-14T07:09:14;3.83;;;2.40;;
54539;SDS011;40438;52.992;18.604;2023-03-14T07:11:48;4.07;;;2.20;;
54539;SDS011;40438;52.992;18.604;2023-03-14T07:14:15;6.13;;;2.75;;
54539;SDS011;40438;52.992;18.604;2023-03-14T07:16:41;4.50;;;2.30;;
54539;SDS011;40438;52.992;18.604;2023-03-14T07:19:07;4.57;;;2.58;;
54539;SDS011;40438;52.992;18.604;2023-03-14T07:21:33;4.63;;;2.42;;
54539;SDS011;40438;52.992;18.604;2023-03-14T07:23:59;4.65;;;2.45;;
54539;SDS011;40438;52.992;18.604;2023-03-14T07:26:25;5.63;;;2.40;;
54539;SDS011;40438;52.992;18.604;2023-03-14T07:28:53;4.25;;;2.40;;
54539;SDS011;40438;52.992;18.604;2023-03-14T07:31:21;3.92;;;2.63;;
54539;SDS011;40438;52.992;18.604;2023-03-14T07:33:47;4.00;;;2.35;;
54539;SDS011;40438;52.992;18.604;2023-03-14T07:36:13;3.90;;;2.35;;
54539;SDS011;40438;52.992;18.604;2023-03-14T07:38:42;3.97;;;2.13;;
54539;SDS011;40438;52.992;18.604;2023-03-14T07:41:11;6.63;;;2.67;;
54539;SDS011;40438;52.992;18.604;2023-03-14T07:43:44;2.85;;;2.25;;
54539;SDS011;40438;52.992;18.604;2023-03-14T07:46:11;3.88;;;2.55;;
54539;SDS011;40438;52.992;18.604;2023-03-14T07:48:37;3.92;;;2.08;;
54539;SDS011;40438;52.992;18.604;2023-03-14T07:51:03;4.15;;;2.42;;
54539;SDS011;40438;52.992;18.604;2023-03-14T07:53:30;3.55;;;2.22;;
54539;SDS011;40438;52.992;18.604;2023-03-14T07:55:56;3.33;;;2.22;;
54539;SDS011;40438;52.992;18.604;2023-03-14T07:58:22;4.35;;;2.67;;
54539;SDS011;40438;52.992;18.604;2023-03-14T08:00:48;3.25;;;1.98;;
54539;SDS011;40438;52.992;18.604;2023-03-14T08:03:15;3.83;;;2.40;;
54539;SDS011;40438;52.992;18.604;2023-03-14T08:05:41;7.15;;;2.53;;
54539;SDS011;40438;52.992;18.604;2023-03-14T08:08:07;3.95;;;2.35;;
54539;SDS011;40438;52.992;18.604;2023-03-14T08:10:33;3.13;;;2.33;;
54539;SDS011;40438;52.992;18.604;2023-03-14T08:12:59;5.18;;;2.47;;
54539;SDS011;40438;52.992;18.604;2023-03-14T08:15:26;4.63;;;2.70;;
54539;SDS011;40438;52.992;18.604;2023-03-14T08:17:54;5.68;;;2.45;;
54539;SDS011;40438;52.992;18.604;2023-03-14T08:20:21;3.10;;;2.17;;
54539;SDS011;40438;52.992;18.604;2023-03-14T08:22:49;3.05;;;2.13;;
54539;SDS011;40438;52.992;18.604;2023-03-14T08:25:14;5.65;;;2.17;;
54539;SDS011;40438;52.992;18.604;2023-03-14T08:27:41;3.90;;;2.38;;
54539;SDS011;40438;52.992;18.604;2023-03-14T08:30:07;4.43;;;2.50;;
54539;SDS011;40438;52.992;18.604;2023-03-14T08:32:35;3.65;;;2.47;;
54539;SDS011;40438;52.992;18.604;2023-03-14T08:35:01;5.25;;;2.15;;
54539;SDS011;40438;52.992;18.604;2023-03-14T08:37:28;3.97;;;2.53;;
54539;SDS011;40438;52.992;18.604;2023-03-14T08:39:54;4.10;;;2.38;;
54539;SDS011;40438;52.992;18.604;2023-03-14T08:42:19;4.40;;;2.63;;
54539;SDS011;40438;52.992;18.604;2023-03-14T08:44:45;3.83;;;2.55;;
54539;SDS011;40438;52.992;18.604;2023-03-14T08:47:11;4.07;;;2.13;;
54539;SDS011;40438;52.992;18.604;2023-03-14T08:49:37;4.97;;;2.47;;
54539;SDS011;40438;52.992;18.604;2023-03-14T08:52:03;3.00;;;2.28;;
54539;SDS011;40438;52.992;18.604;2023-03-14T08:54:30;9.15;;;2.42;;
54539;SDS011;40438;52.992;18.604;2023-03-14T08:56:56;4.72;;;2.60;;
54539;SDS011;40438;52.992;18.604;2023-03-14T08:59:22;2.95;;;2.33;;
54539;SDS011;40438;52.992;18.604;2023-03-14T09:01:48;4.03;;;2.58;;
54539;SDS011;40438;52.992;18.604;2023-03-14T09:04:14;5.13;;;2.58;;
54539;SDS011;40438;52.992;18.604;2023-03-14T09:06:40;5.88;;;3.17;;
54539;SDS011;40438;52.992;18.604;2023-03-14T09:09:05;3.03;;;2.15;;
54539;SDS011;40438;52.992;18.604;2023-03-14T09:11:33;4.43;;;2.50;;
54539;SDS011;40438;52.992;18.604;2023-03-14T09:13:58;3.75;;;2.35;;
54539;SDS011;40438;52.992;18.604;2023-03-14T09:16:24;3.53;;;2.30;;
54539;SDS011;40438;52.992;18.604;2023-03-14T09:18:50;4.05;;;2.60;;
54539;SDS011;40438;52.992;18.604;2023-03-14T09:21:16;5.72;;;2.75;;
54539;SDS011;40438;52.992;18.604;2023-03-14T09:23:42;5.32;;;2.22;;
54539;SDS011;40438;52.992;18.604;2023-03-14T09:26:08;3.53;;;2.60;;
54539;SDS011;40438;52.992;18.604;2023-03-14T09:28:35;4.72;;;2.72;;
54539;SDS011;40438;52.992;18.604;2023-03-14T09:31:05;5.18;;;2.90;;
54539;SDS011;40438;52.992;18.604;2023-03-14T09:33:31;4.38;;;3.00;;
54539;SDS011;40438;52.992;18.604;2023-03-14T09:35:57;4.63;;;2.75;;
54539;SDS011;40438;52.992;18.604;2023-03-14T09:38:23;5.07;;;2.78;;
54539;SDS011;40438;52.992;18.604;2023-03-14T09:40:49;3.88;;;2.30;;
54539;SDS011;40438;52.992;18.604;2023-03-14T09:43:15;100.43;;;27.98;;
54539;SDS011;40438;52.992;18.604;2023-03-14T09:45:43;273.90;;;67.32;;
54539;SDS011;40438;52.992;18.604;2023-03-14T09:48:14;344.80;;;91.78;;
54539;SDS011;40438;52.992;18.604;2023-03-14T09:50:42;475.15;;;137.25;;
54539;SDS011;40438;52.992;18.604;2023-03-14T09:53:11;444.38;;;126.97;;
54539;SDS011;40438;52.992;18.604;2023-03-14T09:55:41;446.73;;;128.57;;
54539;SDS011;40438;52.992;18.604;2023-03-14T09:58:09;421.92;;;122.60;;
54539;SDS011;40438;52.992;18.604;2023-03-14T10:00:37;408.40;;;113.85;;
54539;SDS011;40438;52.992;18.604;2023-03-14T10:03:22;312.20;;;89.38;;
54539;SDS011;40438;52.992;18.604;2023-03-14T10:05:51;292.50;;;89.32;;
54539;SDS011;40438;52.992;18.604;2023-03-14T10:08:18;285.42;;;79.47;;
54539;SDS011;40438;52.992;18.604;2023-03-14T10:10:43;243.60;;;70.68;;
54539;SDS011;40438;52.992;18.604;2023-03-14T10:13:12;224.00;;;62.70;;
54539;SDS011;40438;52.992;18.604;2023-03-14T10:15:41;210.30;;;60.70;;
54539;SDS011;40438;52.992;18.604;2023-03-14T10:18:13;206.10;;;58.65;;
54539;SDS011;40438;52.992;18.604;2023-03-14T10:20:40;172.48;;;49.95;;
54539;SDS011;40438;52.992;18.604;2023-03-14T10:23:18;164.80;;;46.97;;
54539;SDS011;40438;52.992;18.604;2023-03-14T10:25:58;140.73;;;43.92;;
54539;SDS011;40438;52.992;18.604;2023-03-14T10:28:26;155.00;;;43.90;;
54539;SDS011;40438;52.992;18.604;2023-03-14T10:30:53;137.27;;;42.42;;
54539;SDS011;40438;52.992;18.604;2023-03-14T10:33:22;131.10;;;39.95;;
54539;SDS011;40438;52.992;18.604;2023-03-14T10:35:52;113.60;;;35.35;;
54539;SDS011;40438;52.992;18.604;2023-03-14T10:38:19;122.53;;;35.67;;
54539;SDS011;40438;52.992;18.604;2023-03-14T10:40:47;110.35;;;23.63;;
54539;SDS011;40438;52.992;18.604;2023-03-14T10:43:17;82.43;;;25.15;;
54539;SDS011;40438;52.992;18.604;2023-03-14T10:45:44;113.40;;;31.00;;
54539;SDS011;40438;52.992;18.604;2023-03-14T10:48:18;93.13;;;25.33;;
54539;SDS011;40438;52.992;18.604;2023-03-14T10:50:53;93.97;;;27.08;;
54539;SDS011;40438;52.992;18.604;2023-03-14T10:53:21;84.13;;;25.00;;
54539;SDS011;40438;52.992;18.604;2023-03-14T10:55:47;89.60;;;24.23;;
54539;SDS011;40438;52.992;18.604;2023-03-14T10:58:22;64.72;;;20.92;;
54539;SDS011;40438;52.992;18.604;2023-03-14T11:00:51;65.22;;;22.15;;
54539;SDS011;40438;52.992;18.604;2023-03-14T11:03:23;76.30;;;20.48;;
54539;SDS011;40438;52.992;18.604;2023-03-14T11:05:52;74.05;;;20.27;;
54539;SDS011;40438;52.992;18.604;2023-03-14T11:08:23;73.43;;;20.95;;
54539;SDS011;40438;52.992;18.604;2023-03-14T11:10:53;66.70;;;19.80;;
54539;SDS011;40438;52.992;18.604;2023-03-14T11:13:23;65.20;;;18.48;;
54539;SDS011;40438;52.992;18.604;2023-03-14T11:15:58;55.33;;;17.85;;
54539;SDS011;40438;52.992;18.604;2023-03-14T11:18:48;61.45;;;17.60;;
54539;SDS011;40438;52.992;18.604;2023-03-14T11:21:22;62.45;;;18.05;;
54539;SDS011;40438;52.992;18.604;2023-03-14T11:26:27;52.22;;;15.88;;
54539;SDS011;40438;52.992;18.604;2023-03-14T11:28:58;42.35;;;13.60;;
54539;SDS011;40438;52.992;18.604;2023-03-14T11:31:33;38.20;;;13.77;;
54539;SDS011;40438;52.992;18.604;2023-03-14T11:34:07;36.50;;;13.48;;
54539;SDS011;40438;52.992;18.604;2023-03-14T11:36:41;58.40;;;14.93;;
54539;SDS011;40438;52.992;18.604;2023-03-14T11:39:12;39.03;;;13.07;;
54539;SDS011;40438;52.992;18.604;2023-03-14T11:41:40;52.78;;;12.80;;
54539;SDS011;40438;52.992;18.604;2023-03-14T11:44:10;47.55;;;13.52;;
54539;SDS011;40438;52.992;18.604;2023-03-14T11:46:43;43.60;;;14.15;;
54539;SDS011;40438;52.992;18.604;2023-03-14T11:49:14;54.00;;;14.23;;
54539;SDS011;40438;52.992;18.604;2023-03-14T11:51:50;42.85;;;13.20;;
54539;SDS011;40438;52.992;18.604;2023-03-14T11:54:20;51.60;;;13.00;;
54539;SDS011;40438;52.992;18.604;2023-03-14T11:56:53;46.05;;;12.45;;
54539;SDS011;40438;52.992;18.604;2023-03-14T11:59:24;34.78;;;11.77;;
54539;SDS011;40438;52.992;18.604;2023-03-14T12:01:57;37.90;;;11.27;;
54539;SDS011;40438;52.992;18.604;2023-03-14T12:04:34;41.33;;;11.02;;
54539;SDS011;40438;52.992;18.604;2023-03-14T12:07:09;44.75;;;11.52;;
54539;SDS011;40438;52.992;18.604;2023-03-14T12:09:42;37.30;;;10.95;;
54539;SDS011;40438;52.992;18.604;2023-03-14T12:12:10;34.85;;;11.07;;
54539;SDS011;40438;52.992;18.604;2023-03-14T12:14:44;32.70;;;9.45;;
54539;SDS011;40438;52.992;18.604;2023-03-14T12:17:18;36.03;;;9.82;;
54539;SDS011;40438;52.992;18.604;2023-03-14T12:19:46;37.35;;;9.48;;
54539;SDS011;40438;52.992;18.604;2023-03-14T12:24:56;30.00;;;8.20;;
54539;SDS011;40438;52.992;18.604;2023-03-14T12:27:43;27.67;;;8.80;;
54539;SDS011;40438;52.992;18.604;2023-03-14T12:30:26;25.55;;;9.20;;
54539;SDS011;40438;52.992;18.604;2023-03-14T12:33:19;27.17;;;7.97;;
54539;SDS011;40438;52.992;18.604;2023-03-14T12:35:48;24.83;;;8.35;;
54539;SDS011;40438;52.992;18.604;2023-03-14T12:38:15;25.80;;;8.90;;
54539;SDS011;40438;52.992;18.604;2023-03-14T12:40:48;28.13;;;7.82;;
54539;SDS011;40438;52.992;18.604;2023-03-14T12:43:25;26.15;;;8.02;;
54539;SDS011;40438;52.992;18.604;2023-03-14T12:46:06;30.57;;;8.40;;
54539;SDS011;40438;52.992;18.604;2023-03-14T12:48:33;31.13;;;8.18;;
54539;SDS011;40438;52.992;18.604;2023-03-14T12:51:02;48.50;;;8.90;;
54539;SDS011;40438;52.992;18.604;2023-03-14T12:57:00;24.52;;;6.78;;
54539;SDS011;40438;52.992;18.604;2023-03-14T12:59:34;22.40;;;7.25;;
54539;SDS011;40438;52.992;18.604;2023-03-14T13:02:10;21.17;;;6.97;;
54539;SDS011;40438;52.992;18.604;2023-03-14T13:04:44;22.23;;;6.93;;
54539;SDS011;40438;52.992;18.604;2023-03-14T13:07:15;19.90;;;6.85;;
54539;SDS011;40438;52.992;18.604;2023-03-14T13:09:58;6.68;;;2.60;;
54539;SDS011;40438;52.992;18.604;2023-03-14T13:12:28;6.15;;;2.67;;
54539;SDS011;40438;52.992;18.604;2023-03-14T13:14:57;12.10;;;3.30;;
54539;SDS011;40438;52.992;18.604;2023-03-14T13:17:25;10.93;;;2.95;;
54539;SDS011;40438;52.992;18.604;2023-03-14T13:19:53;7.70;;;2.92;;
54539;SDS011;40438;52.992;18.604;2023-03-14T13:22:24;5.72;;;2.20;;
54539;SDS011;40438;52.992;18.604;2023-03-14T13:24:56;7.30;;;3.08;;
54539;SDS011;40438;52.992;18.604;2023-03-14T13:27:24;10.90;;;3.55;;
54539;SDS011;40438;52.992;18.604;2023-03-14T13:29:50;8.93;;;3.03;;
54539;SDS011;40438;52.992;18.604;2023-03-14T13:32:17;5.57;;;2.97;;
54539;SDS011;40438;52.992;18.604;2023-03-14T13:34:45;5.05;;;2.90;;
54539;SDS011;40438;52.992;18.604;2023-03-14T13:37:15;11.68;;;3.72;;
54539;SDS011;40438;52.992;18.604;2023-03-14T13:39:43;10.20;;;3.25;;
54539;SDS011;40438;52.992;18.604;2023-03-14T13:42:15;7.97;;;3.20;;
54539;SDS011;40438;52.992;18.604;2023-03-14T13:44:41;6.22;;;3.03;;
54539;SDS011;40438;52.992;18.604;2023-03-14T13:47:10;10.80;;;3.50;;
54539;SDS011;40438;52.992;18.604;2023-03-14T13:52:20;9.73;;;3.28;;
54539;SDS011;40438;52.992;18.604;2023-03-14T13:54:54;10.10;;;3.22;;
54539;SDS011;40438;52.992;18.604;2023-03-14T13:57:22;5.80;;;3.28;;
54539;SDS011;40438;52.992;18.604;2023-03-14T13:59:58;13.43;;;5.18;;
54539;SDS011;40438;52.992;18.604;2023-03-14T14:02:25;24.10;;;8.75;;
54539;SDS011;40438;52.992;18.604;2023-03-14T14:04:52;32.63;;;10.52;;
54539;SDS011;40438;52.992;18.604;2023-03-14T14:07:18;45.33;;;16.50;;
54539;SDS011;40438;52.992;18.604;2023-03-14T14:09:44;42.53;;;16.55;;
54539;SDS011;40438;52.992;18.604;2023-03-14T14:12:14;46.72;;;17.20;;
54539;SDS011;40438;52.992;18.604;2023-03-14T14:14:42;53.88;;;18.48;;
54539;SDS011;40438;52.992;18.604;2023-03-14T14:17:11;44.40;;;18.45;;
54539;SDS011;40438;52.992;18.604;2023-03-14T14:19:40;46.45;;;17.98;;
54539;SDS011;40438;52.992;18.604;2023-03-14T14:22:07;52.00;;;17.02;;
54539;SDS011;40438;52.992;18.604;2023-03-14T14:24:34;52.78;;;16.98;;
54539;SDS011;40438;52.992;18.604;2023-03-14T14:27:03;47.25;;;16.00;;
54539;SDS011;40438;52.992;18.604;2023-03-14T14:32:02;46.40;;;15.73;;
54539;SDS011;40438;52.992;18.604;2023-03-14T14:34:38;41.97;;;15.25;;
54539;SDS011;40438;52.992;18.604;2023-03-14T14:37:04;36.80;;;14.35;;
54539;SDS011;40438;52.992;18.604;2023-03-14T14:39:30;37.38;;;14.65;;
54539;SDS011;40438;52.992;18.604;2023-03-14T14:41:56;39.33;;;15.15;;
54539;SDS011;40438;52.992;18.604;2023-03-14T14:44:26;38.65;;;12.82;;
54539;SDS011;40438;52.992;18.604;2023-03-14T14:46:55;37.67;;;12.43;;
54539;SDS011;40438;52.992;18.604;2023-03-14T14:49:22;37.67;;;12.35;;
54539;SDS011;40438;52.992;18.604;2023-03-14T14:51:59;33.65;;;12.48;;
54539;SDS011;40438;52.992;18.604;2023-03-14T14:54:32;37.05;;;11.20;;
54539;SDS011;40438;52.992;18.604;2023-03-14T14:57:02;41.75;;;11.88;;